首页
METAR-TAF:

METAR-TAF

机场 :

布雷西亚Ghedi, 意大利

纬度: 45-25N, 经度: 010-17E, 海拔: 102米

当前天气观测

该预报发布于56分钟前的23:55 UTC
风速4节,风向
温度 6°C
湿度 87%
气压 1007 hPa
能見度: 0400
多云层高于100英尺

METAR: LIPL 172355Z 36004KT 0400 R31/0550N FG BKN001 06/04 Q1007 RMK BKN VIS MIN 0400 WIND THR31 /////KT WIND THR13 29002KT RED

时间: 01:51 (00:51 UTC)

预报

该预报发布于1小时和51分钟前的23:00 UTC
预报有效从18日的 00点(UTC)到 18日的 09点(UTC)
风速5节,风向北转东北
能見度: 1200
散云层高于800英尺
碎片雾
短暂存在
从 18日的 00点(UTC)到 18日的 05点(UTC)
能見度: 0600
多云层高于500英尺
成为
从 18日的 06点(UTC)到 18日的 08点(UTC)
能見度: 3000
多云层高于1500英尺
轻雾

TAF: LIPL 172300Z 1800/1809 02005KT 1200 BCFG SCT008 TEMPO 1800/1805 0600 FG BKN005 BECMG 1806/1808 3000 BR BKN015

超过4000个机场的气象观测和天气预报(METAR&TAF报告)。

可查询的气象台以黄色和红色小点在地图上表示。

将鼠标移到小点上方,可查看气象台名称。

然后点击查看天气观测和预报。

如需切换地图:点击带黑十字的绿色按钮放大地图;点击带横线的绿色按钮缩小地图;或者点击绿色箭头查看邻近地区的地图。


METAR-TAF: